createdAt,value
2022-10-16T00:02:18.151Z,15.50
2022-10-16T00:04:45.389Z,15.50
2022-10-16T00:07:12.428Z,15.60
2022-10-16T00:09:39.370Z,15.50
2022-10-16T00:12:07.763Z,15.50
2022-10-16T00:14:34.743Z,15.30
2022-10-16T00:17:02.387Z,15.10
2022-10-16T00:19:30.076Z,15.20
2022-10-16T00:21:57.235Z,15.20
2022-10-16T00:24:24.230Z,15.30
2022-10-16T00:26:52.064Z,15.40
2022-10-16T00:29:19.194Z,15.40
2022-10-16T00:31:46.452Z,15.30
2022-10-16T00:34:13.707Z,15.30
2022-10-16T00:36:40.871Z,15.50
2022-10-16T00:39:07.877Z,15.50
2022-10-16T00:41:35.330Z,15.50
2022-10-16T00:44:05.300Z,15.60
2022-10-16T00:46:40.966Z,15.60
2022-10-16T00:49:16.871Z,15.60
2022-10-16T00:51:50.434Z,15.60
2022-10-16T00:54:30.649Z,15.50
2022-10-16T00:57:01.628Z,15.50
2022-10-16T00:59:32.232Z,15.40
2022-10-16T01:02:00.371Z,15.40
2022-10-16T01:04:30.667Z,15.40
2022-10-16T01:07:25.677Z,15.50
2022-10-16T01:10:04.396Z,15.60
2022-10-16T01:12:53.980Z,15.60
2022-10-16T01:15:47.147Z,15.60
2022-10-16T01:18:25.737Z,15.70
2022-10-16T01:21:02.143Z,15.70
2022-10-16T01:23:37.352Z,15.60
2022-10-16T01:26:29.110Z,15.60
2022-10-16T01:29:04.641Z,15.70
2022-10-16T01:31:36.497Z,15.70
2022-10-16T01:34:15.289Z,15.70
2022-10-16T01:37:01.683Z,15.70
2022-10-16T01:39:33.229Z,15.70
2022-10-16T01:42:06.279Z,15.90
2022-10-16T01:44:37.516Z,15.90
2022-10-16T01:47:06.604Z,15.80
2022-10-16T01:49:37.278Z,15.90
2022-10-16T01:52:10.674Z,15.90
2022-10-16T01:54:40.878Z,15.90
2022-10-16T01:57:09.679Z,15.90
2022-10-16T01:59:43.406Z,15.90
2022-10-16T02:02:12.858Z,15.80
2022-10-16T02:04:46.708Z,15.80
2022-10-16T02:07:14.722Z,15.80
2022-10-16T02:09:42.535Z,15.70
2022-10-16T02:12:32.073Z,15.70
2022-10-16T02:14:59.648Z,15.80
2022-10-16T02:17:27.528Z,15.80
2022-10-16T02:19:57.102Z,15.80
2022-10-16T02:22:51.468Z,15.80
2022-10-16T02:25:20.683Z,15.70
2022-10-16T02:27:53.285Z,15.80
2022-10-16T02:30:32.415Z,15.90
2022-10-16T02:33:03.757Z,15.80
2022-10-16T02:35:32.981Z,15.80
2022-10-16T02:38:00.595Z,15.80
2022-10-16T02:40:28.693Z,15.90
2022-10-16T02:42:56.679Z,15.90
2022-10-16T02:45:25.037Z,16.00
2022-10-16T02:47:52.435Z,15.90
2022-10-16T02:50:19.971Z,15.80
2022-10-16T02:52:47.129Z,16.10
2022-10-16T02:55:14.477Z,16.00
2022-10-16T02:57:41.558Z,16.00
2022-10-16T03:00:11.207Z,15.80
2022-10-16T03:02:38.549Z,15.70
2022-10-16T03:05:05.991Z,15.90
2022-10-16T03:07:33.082Z,15.90
2022-10-16T03:10:01.336Z,15.90
2022-10-16T03:12:29.310Z,15.80
2022-10-16T03:14:57.824Z,15.70
2022-10-16T03:17:26.027Z,15.70
2022-10-16T03:19:53.482Z,15.80
2022-10-16T03:22:20.642Z,15.70
2022-10-16T03:24:47.650Z,15.70
2022-10-16T03:27:14.624Z,15.90
2022-10-16T03:29:41.610Z,16.20
2022-10-16T03:32:08.620Z,16.00
2022-10-16T03:34:35.643Z,15.80
2022-10-16T03:37:02.796Z,15.80
2022-10-16T03:39:29.838Z,15.70
2022-10-16T03:41:56.778Z,15.90
2022-10-16T03:44:23.775Z,15.90
2022-10-16T03:46:50.750Z,15.80
2022-10-16T03:49:17.835Z,15.70
2022-10-16T03:51:44.875Z,15.70
2022-10-16T03:54:12.165Z,15.60
2022-10-16T03:56:39.621Z,15.80
2022-10-16T03:59:06.590Z,15.80
2022-10-16T04:01:33.700Z,15.70
2022-10-16T04:04:00.805Z,15.80
2022-10-16T04:06:27.961Z,15.70
2022-10-16T04:08:54.993Z,16.10
2022-10-16T04:11:21.977Z,15.90
2022-10-16T04:13:49.038Z,15.80
2022-10-16T04:16:16.038Z,15.70
2022-10-16T04:18:43.069Z,15.60
2022-10-16T04:21:10.222Z,15.60
2022-10-16T04:23:37.219Z,15.60
2022-10-16T04:26:04.352Z,15.60
2022-10-16T04:28:31.469Z,15.60
2022-10-16T04:30:58.711Z,15.70
2022-10-16T04:33:25.895Z,15.60
2022-10-16T04:36:00.567Z,15.70
2022-10-16T04:38:28.012Z,15.70
2022-10-16T04:40:55.037Z,15.60
2022-10-16T04:43:22.543Z,15.70
2022-10-16T04:45:51.614Z,15.60
2022-10-16T04:48:19.557Z,15.90
2022-10-16T04:50:48.432Z,15.80
2022-10-16T04:53:18.802Z,15.80
2022-10-16T04:55:45.794Z,15.70
2022-10-16T04:58:12.768Z,15.60
2022-10-16T05:00:39.954Z,15.70
2022-10-16T05:03:10.046Z,15.80
2022-10-16T05:05:37.670Z,15.60
2022-10-16T05:08:05.139Z,15.50
2022-10-16T05:10:32.281Z,15.50
2022-10-16T05:12:59.521Z,15.50
2022-10-16T05:15:26.635Z,15.50
2022-10-16T05:17:55.035Z,15.50
2022-10-16T05:20:22.758Z,15.50
2022-10-16T05:22:49.908Z,15.50
2022-10-16T05:25:17.258Z,15.50
2022-10-16T05:27:44.359Z,15.60
2022-10-16T05:30:12.530Z,15.50
2022-10-16T05:32:39.677Z,15.60
2022-10-16T05:35:10.075Z,15.50
2022-10-16T05:37:39.671Z,15.50
2022-10-16T05:40:07.642Z,15.50
2022-10-16T05:42:35.129Z,15.60
2022-10-16T05:45:02.151Z,15.60
2022-10-16T05:47:29.489Z,15.50
2022-10-16T05:49:56.940Z,15.60
2022-10-16T05:52:23.995Z,15.70
2022-10-16T05:54:51.031Z,15.80
2022-10-16T05:57:18.403Z,15.80
2022-10-16T05:59:45.382Z,15.80
2022-10-16T06:02:17.516Z,15.80
2022-10-16T06:04:44.533Z,15.80
2022-10-16T06:07:11.854Z,15.70
2022-10-16T06:09:39.024Z,15.60
2022-10-16T06:12:06.034Z,15.60
2022-10-16T06:14:33.232Z,15.50
2022-10-16T06:17:00.180Z,15.60
2022-10-16T06:19:27.253Z,15.50
2022-10-16T06:21:54.227Z,15.50
2022-10-16T06:24:21.320Z,15.60
2022-10-16T06:26:48.507Z,15.60
2022-10-16T06:29:15.614Z,15.60
2022-10-16T06:31:42.643Z,15.70
2022-10-16T06:34:12.460Z,15.90
2022-10-16T06:36:40.399Z,15.80
2022-10-16T06:39:08.376Z,15.80
2022-10-16T06:41:35.618Z,15.90
2022-10-16T06:44:15.548Z,16.20
2022-10-16T06:46:42.684Z,16.20
2022-10-16T06:49:10.228Z,16.20
2022-10-16T06:51:43.236Z,16.10
2022-10-16T06:54:10.811Z,16.00
2022-10-16T06:56:38.660Z,16.00
2022-10-16T06:59:05.950Z,16.00
2022-10-16T07:01:33.314Z,16.10
2022-10-16T07:04:01.765Z,16.10
2022-10-16T07:06:33.906Z,16.00
2022-10-16T07:09:04.818Z,16.00
2022-10-16T07:11:32.192Z,16.00
2022-10-16T07:13:59.363Z,16.00
2022-10-16T07:16:31.057Z,16.10
2022-10-16T07:19:02.458Z,16.10
2022-10-16T07:21:32.495Z,16.10
2022-10-16T07:24:02.225Z,16.20
2022-10-16T07:26:33.390Z,16.30
2022-10-16T07:29:01.793Z,16.50
2022-10-16T07:31:29.423Z,16.70
2022-10-16T07:33:58.642Z,16.90
2022-10-16T07:36:25.629Z,17.00
2022-10-16T07:38:55.445Z,17.20
2022-10-16T07:41:25.847Z,17.30
2022-10-16T07:43:54.051Z,17.30
2022-10-16T07:46:22.738Z,17.50
2022-10-16T07:48:50.043Z,17.60
2022-10-16T07:51:19.326Z,17.80
2022-10-16T07:53:47.090Z,18.20
2022-10-16T07:56:14.725Z,18.40
2022-10-16T07:58:41.904Z,18.10
2022-10-16T08:01:11.785Z,18.00
2022-10-16T08:03:39.052Z,18.30
2022-10-16T08:06:06.311Z,18.20
2022-10-16T08:08:33.585Z,18.50
2022-10-16T08:11:00.863Z,18.50
2022-10-16T08:13:27.819Z,18.30
2022-10-16T08:15:55.995Z,18.80
2022-10-16T08:18:23.808Z,19.00
2022-10-16T08:20:58.373Z,19.40
2022-10-16T08:23:27.260Z,19.70
2022-10-16T08:26:03.421Z,19.60
2022-10-16T08:28:30.730Z,19.60
2022-10-16T08:31:05.430Z,19.30
2022-10-16T08:33:32.525Z,19.30
2022-10-16T08:35:59.624Z,19.10
2022-10-16T08:38:26.671Z,19.30
2022-10-16T08:40:57.398Z,19.40
2022-10-16T08:43:52.551Z,19.30
2022-10-16T08:46:32.817Z,19.70
2022-10-16T08:49:01.440Z,20.80
2022-10-16T08:51:32.380Z,20.80
2022-10-16T08:54:30.759Z,21.30
2022-10-16T08:57:01.668Z,21.80
2022-10-16T08:59:28.643Z,21.70
2022-10-16T09:01:55.887Z,21.40
2022-10-16T09:04:29.064Z,21.30
2022-10-16T09:07:01.844Z,21.20
2022-10-16T09:10:02.095Z,21.50
2022-10-16T09:12:29.426Z,21.80
2022-10-16T09:15:03.613Z,21.90
2022-10-16T09:17:33.305Z,22.20
2022-10-16T09:20:18.935Z,22.10
2022-10-16T09:22:46.077Z,22.10
2022-10-16T09:25:19.064Z,21.70
2022-10-16T09:27:49.196Z,21.60
2022-10-16T09:30:19.413Z,22.00
2022-10-16T09:32:49.310Z,21.40
2022-10-16T09:35:28.245Z,21.50
2022-10-16T09:37:56.223Z,22.30
2022-10-16T09:40:40.366Z,22.30
2022-10-16T09:43:23.827Z,22.90
2022-10-16T09:46:05.927Z,23.00
2022-10-16T09:48:44.268Z,23.10
2022-10-16T09:51:28.615Z,23.60
2022-10-16T09:53:58.801Z,24.00
2022-10-16T09:56:34.603Z,23.70
2022-10-16T09:59:09.940Z,23.40
2022-10-16T10:01:46.105Z,22.60
2022-10-16T10:04:13.645Z,21.80
2022-10-16T10:06:48.451Z,21.50
2022-10-16T10:09:24.293Z,23.20
2022-10-16T10:11:55.250Z,25.20
2022-10-16T10:14:22.288Z,28.00
2022-10-16T10:16:49.946Z,28.60
2022-10-16T10:19:22.189Z,30.90
2022-10-16T10:21:50.214Z,32.90
2022-10-16T10:24:19.436Z,31.90
2022-10-16T10:26:52.215Z,33.20
2022-10-16T10:29:30.815Z,34.30
2022-10-16T10:32:03.901Z,34.40
2022-10-16T10:34:36.915Z,34.30
2022-10-16T10:37:17.160Z,33.70
2022-10-16T10:39:56.319Z,33.60
2022-10-16T10:42:42.677Z,32.40
2022-10-16T10:45:22.659Z,31.80
2022-10-16T10:48:07.384Z,30.30
2022-10-16T10:50:50.675Z,28.60
2022-10-16T10:53:35.836Z,28.00
2022-10-16T10:56:21.383Z,26.80
2022-10-16T10:59:03.515Z,26.40
2022-10-16T11:01:57.183Z,27.20
2022-10-16T11:04:51.652Z,29.10
2022-10-16T11:07:25.081Z,30.90
2022-10-16T11:09:56.913Z,32.10
2022-10-16T11:12:46.947Z,31.70
2022-10-16T11:15:20.447Z,32.40
2022-10-16T11:18:01.442Z,33.90
2022-10-16T11:20:32.898Z,31.30
2022-10-16T11:23:19.352Z,32.80
2022-10-16T11:25:47.637Z,33.30
2022-10-16T11:28:52.840Z,33.30
2022-10-16T11:31:22.711Z,32.90
2022-10-16T11:34:16.824Z,34.30
2022-10-16T11:37:06.911Z,31.70
2022-10-16T11:39:34.599Z,33.00
2022-10-16T11:42:22.489Z,33.20
2022-10-16T11:45:18.644Z,34.10
2022-10-16T11:47:59.149Z,32.60
2022-10-16T11:50:33.225Z,31.90
2022-10-16T11:53:00.360Z,32.20
2022-10-16T11:55:43.080Z,32.30
2022-10-16T11:58:37.163Z,32.00
2022-10-16T12:01:20.128Z,31.70
2022-10-16T12:03:51.545Z,31.50
2022-10-16T12:06:21.909Z,30.40
2022-10-16T12:08:49.231Z,29.20
2022-10-16T12:11:28.059Z,29.20
2022-10-16T12:14:30.319Z,29.40
2022-10-16T12:17:03.270Z,29.40
2022-10-16T12:19:31.356Z,30.30
2022-10-16T12:22:04.558Z,30.30
2022-10-16T12:24:34.571Z,29.20
2022-10-16T12:27:02.429Z,28.80
2022-10-16T12:29:35.708Z,28.40
2022-10-16T12:32:05.363Z,27.40
2022-10-16T12:34:45.098Z,26.80
2022-10-16T12:37:22.944Z,26.90
2022-10-16T12:39:51.317Z,27.00
2022-10-16T12:42:27.172Z,27.30
2022-10-16T12:44:55.731Z,27.80
2022-10-16T12:47:47.673Z,27.30
2022-10-16T12:50:37.216Z,28.90
2022-10-16T12:53:18.993Z,31.20
2022-10-16T12:56:25.245Z,32.70
2022-10-16T12:59:08.363Z,35.30
2022-10-16T13:01:50.666Z,32.50
2022-10-16T13:07:25.300Z,28.90
2022-10-16T13:10:05.639Z,27.70
2022-10-16T13:12:56.032Z,26.90
2022-10-16T13:15:41.073Z,26.20
2022-10-16T13:18:29.960Z,25.30
2022-10-16T13:21:57.002Z,24.90
2022-10-16T13:24:47.613Z,24.70
2022-10-16T13:27:39.854Z,24.60
2022-10-16T13:30:28.131Z,24.20
2022-10-16T13:33:09.180Z,23.90
2022-10-16T13:35:38.062Z,23.70
2022-10-16T13:38:20.891Z,23.50
2022-10-16T13:40:53.635Z,23.20
2022-10-16T13:43:27.378Z,23.20
2022-10-16T13:46:04.959Z,23.00
2022-10-16T13:48:40.524Z,22.90
2022-10-16T13:51:20.300Z,22.70
2022-10-16T13:53:50.594Z,22.60
2022-10-16T13:56:28.273Z,22.60
2022-10-16T13:59:07.633Z,22.60
2022-10-16T14:01:43.411Z,22.70
2022-10-16T14:04:23.022Z,22.60
2022-10-16T14:06:53.046Z,22.50
2022-10-16T14:09:35.496Z,22.50
2022-10-16T14:12:11.923Z,22.40
2022-10-16T14:14:50.747Z,22.40
2022-10-16T14:17:28.342Z,22.50
2022-10-16T14:20:06.527Z,22.70
2022-10-16T14:22:37.596Z,22.90
2022-10-16T14:25:27.884Z,23.00
2022-10-16T14:28:24.698Z,22.90
2022-10-16T14:31:00.512Z,22.60
2022-10-16T14:33:35.203Z,22.20
2022-10-16T14:36:05.431Z,22.30
2022-10-16T14:38:34.336Z,22.30
2022-10-16T14:41:02.497Z,22.00
2022-10-16T14:43:36.201Z,21.90
2022-10-16T14:46:08.315Z,21.70
2022-10-16T14:48:42.173Z,21.40
2022-10-16T14:51:17.823Z,21.30
2022-10-16T14:53:48.558Z,21.20
2022-10-16T14:56:22.234Z,21.20
2022-10-16T14:58:51.604Z,21.30
2022-10-16T15:01:19.172Z,21.20
2022-10-16T15:03:46.987Z,21.20
2022-10-16T15:06:16.413Z,21.10
2022-10-16T15:08:43.873Z,21.10
2022-10-16T15:11:17.098Z,20.90
2022-10-16T15:13:44.583Z,20.70
2022-10-16T15:16:17.886Z,20.60
2022-10-16T15:18:45.465Z,20.50
2022-10-16T15:21:27.395Z,20.60
2022-10-16T15:23:55.053Z,20.70
2022-10-16T15:26:21.937Z,21.00
2022-10-16T15:28:48.948Z,21.40
2022-10-16T15:31:15.870Z,21.80
2022-10-16T15:33:43.204Z,22.30
2022-10-16T15:36:10.581Z,22.40
2022-10-16T15:38:37.504Z,22.50
2022-10-16T15:41:04.562Z,22.50
2022-10-16T15:43:31.534Z,22.30
2022-10-16T15:46:07.659Z,22.00
2022-10-16T15:48:34.909Z,21.70
2022-10-16T15:51:06.092Z,21.30
2022-10-16T15:53:33.151Z,21.00
2022-10-16T15:56:06.722Z,20.70
2022-10-16T15:58:34.343Z,20.50
2022-10-16T16:01:02.802Z,20.40
2022-10-16T16:03:30.215Z,20.40
2022-10-16T16:05:57.643Z,20.30
2022-10-16T16:08:24.748Z,20.20
2022-10-16T16:11:06.320Z,19.90
2022-10-16T16:13:33.903Z,19.60
2022-10-16T16:16:01.054Z,19.30
2022-10-16T16:18:29.624Z,19.10
2022-10-16T16:20:56.753Z,19.10
2022-10-16T16:23:23.905Z,19.00
2022-10-16T16:26:23.348Z,18.90
2022-10-16T16:28:50.619Z,18.80
2022-10-16T16:31:17.960Z,18.50
2022-10-16T16:33:44.971Z,18.40
2022-10-16T16:36:15.692Z,18.20
2022-10-16T16:38:43.175Z,18.00
2022-10-16T16:41:31.063Z,18.10
2022-10-16T16:44:08.460Z,18.20
2022-10-16T16:46:35.940Z,18.00
2022-10-16T16:49:04.042Z,17.80
2022-10-16T16:51:31.051Z,17.50
2022-10-16T16:53:58.184Z,17.30
2022-10-16T16:56:26.847Z,17.10
2022-10-16T16:58:56.156Z,16.90
2022-10-16T17:01:24.927Z,16.80
2022-10-16T17:03:53.922Z,16.70
2022-10-16T17:06:22.801Z,16.60
2022-10-16T17:08:50.883Z,16.40
2022-10-16T17:11:27.120Z,16.50
2022-10-16T17:13:57.034Z,16.50
2022-10-16T17:16:28.351Z,16.40
2022-10-16T17:18:55.399Z,16.20
2022-10-16T17:21:23.251Z,16.10
2022-10-16T17:23:53.245Z,16.00
2022-10-16T17:26:20.536Z,15.90
2022-10-16T17:28:51.443Z,15.80
2022-10-16T17:31:27.441Z,15.90
2022-10-16T17:33:54.448Z,15.80
2022-10-16T17:36:22.065Z,15.80
2022-10-16T17:38:49.074Z,15.70
2022-10-16T17:41:24.392Z,15.60
2022-10-16T17:43:52.126Z,15.60
2022-10-16T17:46:22.302Z,15.50
2022-10-16T17:48:53.686Z,15.50
2022-10-16T17:51:27.242Z,15.50
2022-10-16T17:53:57.017Z,15.60
2022-10-16T17:56:25.213Z,15.60
2022-10-16T17:58:54.483Z,15.40
2022-10-16T18:01:25.080Z,15.40
2022-10-16T18:03:54.475Z,15.30
2022-10-16T18:06:23.118Z,15.40
2022-10-16T18:08:51.681Z,15.30
2022-10-16T18:11:19.671Z,15.30
2022-10-16T18:13:47.046Z,15.20
2022-10-16T18:16:15.768Z,15.10
2022-10-16T18:18:47.987Z,15.00
2022-10-16T18:21:17.991Z,15.00
2022-10-16T18:23:50.788Z,15.20
2022-10-16T18:26:20.306Z,15.10
2022-10-16T18:28:47.472Z,15.20
2022-10-16T18:31:17.109Z,15.10
2022-10-16T18:33:48.636Z,15.00
2022-10-16T18:36:22.447Z,14.90
2022-10-16T18:38:49.764Z,14.90
2022-10-16T18:41:17.321Z,14.80
2022-10-16T18:43:44.435Z,14.90
2022-10-16T18:46:17.266Z,14.80
2022-10-16T18:48:44.415Z,15.00
2022-10-16T18:51:26.841Z,15.00
2022-10-16T18:54:00.296Z,14.90
2022-10-16T18:56:30.360Z,14.90
2022-10-16T18:59:00.009Z,14.80
2022-10-16T19:01:30.008Z,14.70
2022-10-16T19:04:00.575Z,14.70
2022-10-16T19:06:28.721Z,14.80
2022-10-16T19:08:57.245Z,14.70
2022-10-16T19:11:25.751Z,14.60
2022-10-16T19:13:56.488Z,14.60
2022-10-16T19:16:30.846Z,14.50
2022-10-16T19:19:00.214Z,14.50
2022-10-16T19:21:29.156Z,14.50
2022-10-16T19:23:58.974Z,14.50
2022-10-16T19:26:27.923Z,14.40
2022-10-16T19:29:00.883Z,14.40
2022-10-16T19:31:29.900Z,14.40
2022-10-16T19:33:59.768Z,14.30
2022-10-16T19:36:29.774Z,14.40
2022-10-16T19:38:59.760Z,14.40
2022-10-16T19:41:27.945Z,14.40
2022-10-16T19:43:55.779Z,14.40
2022-10-16T19:46:25.292Z,14.40
2022-10-16T19:49:01.318Z,14.30
2022-10-16T19:51:29.390Z,14.40
2022-10-16T19:53:58.697Z,14.30
2022-10-16T19:56:27.746Z,14.50
2022-10-16T19:58:56.173Z,14.40
2022-10-16T20:01:24.840Z,14.50
2022-10-16T20:03:52.056Z,14.40
2022-10-16T20:06:20.270Z,14.40
2022-10-16T20:08:49.812Z,14.40
2022-10-16T20:11:19.991Z,14.30
2022-10-16T20:13:46.989Z,14.30
2022-10-16T20:16:14.646Z,14.20
2022-10-16T20:18:41.799Z,14.20
2022-10-16T20:21:11.155Z,14.20
2022-10-16T20:23:38.323Z,14.40
2022-10-16T20:26:05.948Z,14.30
2022-10-16T20:28:33.508Z,14.30
2022-10-16T20:31:08.011Z,14.30
2022-10-16T20:33:35.123Z,14.20
2022-10-16T20:36:02.216Z,14.10
2022-10-16T20:38:29.391Z,14.00
2022-10-16T20:40:56.537Z,13.90
2022-10-16T20:43:24.371Z,13.90
2022-10-16T20:46:00.509Z,13.80
2022-10-16T20:48:27.627Z,13.90
2022-10-16T20:50:54.696Z,13.90
2022-10-16T20:53:22.322Z,13.90
2022-10-16T20:55:49.251Z,13.90
2022-10-16T20:58:17.460Z,13.90
2022-10-16T21:00:45.100Z,13.80
2022-10-16T21:03:12.634Z,13.70
2022-10-16T21:05:42.856Z,13.80
2022-10-16T21:08:10.240Z,13.70
2022-10-16T21:10:37.355Z,13.80
2022-10-16T21:13:04.284Z,13.70
2022-10-16T21:15:31.234Z,13.60
2022-10-16T21:17:58.116Z,13.60
2022-10-16T21:20:25.145Z,13.60
2022-10-16T21:22:52.089Z,13.60
2022-10-16T21:25:19.187Z,13.60
2022-10-16T21:27:46.759Z,13.60
2022-10-16T21:30:14.204Z,13.50
2022-10-16T21:32:41.167Z,13.50
2022-10-16T21:35:09.332Z,13.60
2022-10-16T21:37:36.377Z,13.50
2022-10-16T21:40:04.101Z,13.60
2022-10-16T21:42:31.556Z,13.40
2022-10-16T21:44:58.468Z,13.50
2022-10-16T21:47:25.412Z,13.50
2022-10-16T21:49:52.427Z,13.40
2022-10-16T21:52:19.402Z,13.40
2022-10-16T21:54:46.380Z,13.40
2022-10-16T21:57:13.401Z,13.40
2022-10-16T21:59:40.320Z,13.40
2022-10-16T22:02:07.266Z,13.40
2022-10-16T22:04:34.293Z,13.30
2022-10-16T22:07:01.264Z,13.30
2022-10-16T22:09:28.289Z,13.30
2022-10-16T22:11:55.195Z,13.30
2022-10-16T22:14:22.185Z,13.30
2022-10-16T22:16:49.958Z,13.50
2022-10-16T22:19:19.084Z,13.50
2022-10-16T22:21:47.554Z,13.60
2022-10-16T22:24:16.103Z,13.50
2022-10-16T22:26:43.378Z,13.50
2022-10-16T22:29:13.307Z,13.30
2022-10-16T22:31:40.526Z,13.30
2022-10-16T22:34:07.616Z,13.30
2022-10-16T22:36:35.003Z,13.30
2022-10-16T22:39:02.512Z,13.20
2022-10-16T22:41:29.731Z,13.20
2022-10-16T22:43:56.680Z,13.20
2022-10-16T22:46:26.008Z,13.20
2022-10-16T22:48:54.936Z,13.10
2022-10-16T22:51:23.660Z,13.30
2022-10-16T22:53:51.260Z,13.40
2022-10-16T22:56:20.961Z,13.20
2022-10-16T22:58:48.505Z,13.10
2022-10-16T23:01:22.684Z,13.10
2022-10-16T23:03:49.884Z,13.00
2022-10-16T23:06:17.012Z,13.00
2022-10-16T23:08:44.023Z,13.10
2022-10-16T23:11:13.291Z,13.10
2022-10-16T23:13:45.291Z,13.10
2022-10-16T23:16:15.260Z,13.00
2022-10-16T23:18:43.879Z,12.90
2022-10-16T23:21:17.173Z,12.90
2022-10-16T23:23:44.472Z,13.00
2022-10-16T23:26:13.075Z,12.80
2022-10-16T23:28:40.373Z,12.80
2022-10-16T23:31:07.928Z,12.70
2022-10-16T23:33:35.672Z,12.70
2022-10-16T23:36:06.541Z,12.60
2022-10-16T23:38:33.496Z,12.60
2022-10-16T23:41:00.560Z,12.60
2022-10-16T23:43:27.711Z,12.60
2022-10-16T23:45:54.884Z,12.60
2022-10-16T23:48:21.699Z,12.70
2022-10-16T23:50:48.475Z,12.70
2022-10-16T23:53:16.795Z,12.70
2022-10-16T23:55:43.627Z,12.70
2022-10-16T23:58:10.472Z,12.70
